sensor_id;sensor_type;location;lat;lon;timestamp;P1;durP1;ratioP1;P2;durP2;ratioP2
18249;SDS011;27980;52.126;5.572;2023-04-04T00:02:08;2.72;;;1.50;;
18249;SDS011;27980;52.126;5.572;2023-04-04T00:04:35;4.50;;;1.85;;
18249;SDS011;27980;52.126;5.572;2023-04-04T00:07:01;2.75;;;1.85;;
18249;SDS011;27980;52.126;5.572;2023-04-04T00:09:29;1.52;;;1.42;;
18249;SDS011;27980;52.126;5.572;2023-04-04T00:11:56;1.92;;;1.58;;
18249;SDS011;27980;52.126;5.572;2023-04-04T00:14:23;3.05;;;1.85;;
18249;SDS011;27980;52.126;5.572;2023-04-04T00:16:49;3.88;;;1.52;;
18249;SDS011;27980;52.126;5.572;2023-04-04T00:19:15;1.60;;;1.50;;
18249;SDS011;27980;52.126;5.572;2023-04-04T00:21:43;3.25;;;1.60;;
18249;SDS011;27980;52.126;5.572;2023-04-04T00:24:10;1.85;;;1.60;;
18249;SDS011;27980;52.126;5.572;2023-04-04T00:26:38;2.85;;;1.50;;
18249;SDS011;27980;52.126;5.572;2023-04-04T00:29:04;2.30;;;1.73;;
18249;SDS011;27980;52.126;5.572;2023-04-04T00:31:31;3.58;;;1.85;;
18249;SDS011;27980;52.126;5.572;2023-04-04T00:33:57;3.13;;;1.45;;
18249;SDS011;27980;52.126;5.572;2023-04-04T00:36:24;1.98;;;1.60;;
18249;SDS011;27980;52.126;5.572;2023-04-04T00:38:51;4.97;;;1.98;;
18249;SDS011;27980;52.126;5.572;2023-04-04T00:41:17;3.17;;;1.83;;
18249;SDS011;27980;52.126;5.572;2023-04-04T00:43:45;2.38;;;1.70;;
18249;SDS011;27980;52.126;5.572;2023-04-04T00:46:11;2.53;;;1.90;;
18249;SDS011;27980;52.126;5.572;2023-04-04T00:48:40;2.03;;;1.38;;
18249;SDS011;27980;52.126;5.572;2023-04-04T00:51:07;1.83;;;1.40;;
18249;SDS011;27980;52.126;5.572;2023-04-04T00:53:34;2.88;;;1.55;;
18249;SDS011;27980;52.126;5.572;2023-04-04T00:56:01;1.63;;;1.52;;
18249;SDS011;27980;52.126;5.572;2023-04-04T00:58:27;3.38;;;1.55;;
18249;SDS011;27980;52.126;5.572;2023-04-04T01:00:55;1.75;;;1.50;;
18249;SDS011;27980;52.126;5.572;2023-04-04T01:03:22;2.70;;;1.83;;
18249;SDS011;27980;52.126;5.572;2023-04-04T01:05:48;4.25;;;1.58;;
18249;SDS011;27980;52.126;5.572;2023-04-04T01:08:16;2.15;;;1.60;;
18249;SDS011;27980;52.126;5.572;2023-04-04T01:10:43;3.28;;;1.83;;
18249;SDS011;27980;52.126;5.572;2023-04-04T01:13:10;2.65;;;1.80;;
18249;SDS011;27980;52.126;5.572;2023-04-04T01:15:36;5.20;;;1.65;;
18249;SDS011;27980;52.126;5.572;2023-04-04T01:18:04;4.28;;;1.75;;
18249;SDS011;27980;52.126;5.572;2023-04-04T01:20:31;6.65;;;2.05;;
18249;SDS011;27980;52.126;5.572;2023-04-04T01:22:59;2.20;;;1.65;;
18249;SDS011;27980;52.126;5.572;2023-04-04T01:25:28;2.00;;;1.90;;
18249;SDS011;27980;52.126;5.572;2023-04-04T01:27:56;2.72;;;1.67;;
18249;SDS011;27980;52.126;5.572;2023-04-04T01:30:22;3.25;;;1.88;;
18249;SDS011;27980;52.126;5.572;2023-04-04T01:32:50;4.05;;;1.90;;
18249;SDS011;27980;52.126;5.572;2023-04-04T01:35:20;2.75;;;1.58;;
18249;SDS011;27980;52.126;5.572;2023-04-04T01:37:51;2.25;;;1.48;;
18249;SDS011;27980;52.126;5.572;2023-04-04T01:40:20;4.28;;;1.73;;
18249;SDS011;27980;52.126;5.572;2023-04-04T01:42:50;2.22;;;1.67;;
18249;SDS011;27980;52.126;5.572;2023-04-04T01:45:17;1.95;;;1.65;;
18249;SDS011;27980;52.126;5.572;2023-04-04T01:47:43;4.85;;;1.80;;
18249;SDS011;27980;52.126;5.572;2023-04-04T01:50:10;5.00;;;2.67;;
18249;SDS011;27980;52.126;5.572;2023-04-04T01:52:37;2.33;;;1.88;;
18249;SDS011;27980;52.126;5.572;2023-04-04T01:55:03;4.07;;;1.60;;
18249;SDS011;27980;52.126;5.572;2023-04-04T01:57:30;2.60;;;1.70;;
18249;SDS011;27980;52.126;5.572;2023-04-04T01:59:58;2.25;;;1.70;;
18249;SDS011;27980;52.126;5.572;2023-04-04T02:02:24;4.38;;;2.65;;
18249;SDS011;27980;52.126;5.572;2023-04-04T02:04:51;1.80;;;1.70;;
18249;SDS011;27980;52.126;5.572;2023-04-04T02:07:17;4.45;;;1.98;;
18249;SDS011;27980;52.126;5.572;2023-04-04T02:09:44;2.10;;;1.90;;
18249;SDS011;27980;52.126;5.572;2023-04-04T02:12:11;2.75;;;1.85;;
18249;SDS011;27980;52.126;5.572;2023-04-04T02:14:37;4.05;;;2.17;;
18249;SDS011;27980;52.126;5.572;2023-04-04T02:17:05;5.63;;;2.30;;
18249;SDS011;27980;52.126;5.572;2023-04-04T02:19:31;3.22;;;2.00;;
18249;SDS011;27980;52.126;5.572;2023-04-04T02:21:58;5.28;;;2.00;;
18249;SDS011;27980;52.126;5.572;2023-04-04T02:24:25;1.98;;;1.67;;
18249;SDS011;27980;52.126;5.572;2023-04-04T02:26:51;3.03;;;2.38;;
18249;SDS011;27980;52.126;5.572;2023-04-04T02:29:17;2.10;;;1.90;;
18249;SDS011;27980;52.126;5.572;2023-04-04T02:31:44;4.90;;;1.73;;
18249;SDS011;27980;52.126;5.572;2023-04-04T02:34:12;2.08;;;1.80;;
18249;SDS011;27980;52.126;5.572;2023-04-04T02:36:38;2.72;;;1.75;;
18249;SDS011;27980;52.126;5.572;2023-04-04T02:39:04;3.95;;;2.20;;
18249;SDS011;27980;52.126;5.572;2023-04-04T02:41:31;2.50;;;1.95;;
18249;SDS011;27980;52.126;5.572;2023-04-04T02:43:57;1.70;;;1.60;;
18249;SDS011;27980;52.126;5.572;2023-04-04T02:46:23;2.83;;;2.45;;
18249;SDS011;27980;52.126;5.572;2023-04-04T02:48:50;1.75;;;1.65;;
18249;SDS011;27980;52.126;5.572;2023-04-04T02:51:18;1.90;;;1.70;;
18249;SDS011;27980;52.126;5.572;2023-04-04T02:53:44;1.70;;;1.60;;
18249;SDS011;27980;52.126;5.572;2023-04-04T02:56:11;3.25;;;2.35;;
18249;SDS011;27980;52.126;5.572;2023-04-04T02:58:38;3.70;;;2.28;;
18249;SDS011;27980;52.126;5.572;2023-04-04T03:01:05;4.72;;;2.13;;
18249;SDS011;27980;52.126;5.572;2023-04-04T03:03:31;2.95;;;2.15;;
18249;SDS011;27980;52.126;5.572;2023-04-04T03:05:58;5.50;;;2.20;;
18249;SDS011;27980;52.126;5.572;2023-04-04T03:08:26;2.70;;;2.25;;
18249;SDS011;27980;52.126;5.572;2023-04-04T03:10:53;2.70;;;2.28;;
18249;SDS011;27980;52.126;5.572;2023-04-04T03:13:19;6.13;;;2.85;;
18249;SDS011;27980;52.126;5.572;2023-04-04T03:15:46;2.08;;;1.88;;
18249;SDS011;27980;52.126;5.572;2023-04-04T03:18:13;3.67;;;2.15;;
18249;SDS011;27980;52.126;5.572;2023-04-04T03:20:40;3.10;;;2.25;;
18249;SDS011;27980;52.126;5.572;2023-04-04T03:23:06;2.25;;;1.90;;
18249;SDS011;27980;52.126;5.572;2023-04-04T03:25:34;2.70;;;1.70;;
18249;SDS011;27980;52.126;5.572;2023-04-04T03:28:06;2.90;;;2.00;;
18249;SDS011;27980;52.126;5.572;2023-04-04T03:30:33;2.95;;;1.95;;
18249;SDS011;27980;52.126;5.572;2023-04-04T03:33:02;2.80;;;2.13;;
18249;SDS011;27980;52.126;5.572;2023-04-04T03:35:28;3.35;;;2.13;;
18249;SDS011;27980;52.126;5.572;2023-04-04T03:37:55;4.82;;;2.47;;
18249;SDS011;27980;52.126;5.572;2023-04-04T03:40:21;2.25;;;2.05;;
18249;SDS011;27980;52.126;5.572;2023-04-04T03:42:49;2.88;;;1.95;;
18249;SDS011;27980;52.126;5.572;2023-04-04T03:45:16;4.07;;;2.45;;
18249;SDS011;27980;52.126;5.572;2023-04-04T03:47:42;2.70;;;2.40;;
18249;SDS011;27980;52.126;5.572;2023-04-04T03:50:09;3.58;;;2.42;;
18249;SDS011;27980;52.126;5.572;2023-04-04T03:52:36;6.38;;;2.47;;
18249;SDS011;27980;52.126;5.572;2023-04-04T03:55:05;1.88;;;1.75;;
18249;SDS011;27980;52.126;5.572;2023-04-04T03:57:34;3.70;;;2.20;;
18249;SDS011;27980;52.126;5.572;2023-04-04T04:00:02;4.45;;;2.60;;
18249;SDS011;27980;52.126;5.572;2023-04-04T04:02:29;2.08;;;1.92;;
18249;SDS011;27980;52.126;5.572;2023-04-04T04:04:56;4.25;;;2.17;;
18249;SDS011;27980;52.126;5.572;2023-04-04T04:07:22;4.45;;;2.63;;
18249;SDS011;27980;52.126;5.572;2023-04-04T04:09:48;4.65;;;2.88;;
18249;SDS011;27980;52.126;5.572;2023-04-04T04:12:15;3.92;;;2.33;;
18249;SDS011;27980;52.126;5.572;2023-04-04T04:14:41;2.55;;;2.35;;
18249;SDS011;27980;52.126;5.572;2023-04-04T04:17:09;3.63;;;3.03;;
18249;SDS011;27980;52.126;5.572;2023-04-04T04:19:35;4.13;;;2.47;;
18249;SDS011;27980;52.126;5.572;2023-04-04T04:22:02;1.83;;;1.73;;
18249;SDS011;27980;52.126;5.572;2023-04-04T04:24:28;6.85;;;2.83;;
18249;SDS011;27980;52.126;5.572;2023-04-04T04:26:54;5.85;;;2.83;;
18249;SDS011;27980;52.126;5.572;2023-04-04T04:29:21;5.03;;;2.40;;
18249;SDS011;27980;52.126;5.572;2023-04-04T04:31:47;4.47;;;2.38;;
18249;SDS011;27980;52.126;5.572;2023-04-04T04:34:15;3.03;;;2.30;;
18249;SDS011;27980;52.126;5.572;2023-04-04T04:36:41;3.35;;;2.58;;
18249;SDS011;27980;52.126;5.572;2023-04-04T04:39:08;9.38;;;2.78;;
18249;SDS011;27980;52.126;5.572;2023-04-04T04:41:34;6.32;;;3.10;;
18249;SDS011;27980;52.126;5.572;2023-04-04T04:44:01;3.90;;;2.20;;
18249;SDS011;27980;52.126;5.572;2023-04-04T04:46:27;5.68;;;3.08;;
18249;SDS011;27980;52.126;5.572;2023-04-04T04:48:54;5.25;;;2.90;;
18249;SDS011;27980;52.126;5.572;2023-04-04T04:51:21;5.65;;;2.80;;
18249;SDS011;27980;52.126;5.572;2023-04-04T04:53:48;4.70;;;2.72;;
18249;SDS011;27980;52.126;5.572;2023-04-04T04:56:14;5.32;;;3.13;;
18249;SDS011;27980;52.126;5.572;2023-04-04T04:58:40;5.30;;;3.20;;
18249;SDS011;27980;52.126;5.572;2023-04-04T05:01:09;6.60;;;2.92;;
18249;SDS011;27980;52.126;5.572;2023-04-04T05:03:35;5.82;;;3.28;;
18249;SDS011;27980;52.126;5.572;2023-04-04T05:06:02;3.60;;;3.00;;
18249;SDS011;27980;52.126;5.572;2023-04-04T05:08:30;3.40;;;2.55;;
18249;SDS011;27980;52.126;5.572;2023-04-04T05:10:56;4.90;;;2.80;;
18249;SDS011;27980;52.126;5.572;2023-04-04T05:13:23;10.13;;;3.70;;
18249;SDS011;27980;52.126;5.572;2023-04-04T05:15:49;7.50;;;3.55;;
18249;SDS011;27980;52.126;5.572;2023-04-04T05:18:15;7.65;;;3.22;;
18249;SDS011;27980;52.126;5.572;2023-04-04T05:20:42;4.63;;;3.10;;
18249;SDS011;27980;52.126;5.572;2023-04-04T05:23:08;3.17;;;2.55;;
18249;SDS011;27980;52.126;5.572;2023-04-04T05:25:36;3.45;;;3.00;;
18249;SDS011;27980;52.126;5.572;2023-04-04T05:28:02;5.03;;;3.35;;
18249;SDS011;27980;52.126;5.572;2023-04-04T05:30:28;3.10;;;2.80;;
18249;SDS011;27980;52.126;5.572;2023-04-04T05:32:56;6.78;;;3.17;;
18249;SDS011;27980;52.126;5.572;2023-04-04T05:35:22;4.63;;;3.45;;
18249;SDS011;27980;52.126;5.572;2023-04-04T05:37:50;4.18;;;3.67;;
18249;SDS011;27980;52.126;5.572;2023-04-04T05:40:16;4.63;;;3.47;;
18249;SDS011;27980;52.126;5.572;2023-04-04T05:42:44;5.13;;;3.17;;
18249;SDS011;27980;52.126;5.572;2023-04-04T05:45:18;4.38;;;3.30;;
18249;SDS011;27980;52.126;5.572;2023-04-04T05:47:44;6.18;;;3.55;;
18249;SDS011;27980;52.126;5.572;2023-04-04T05:50:11;5.78;;;3.53;;
18249;SDS011;27980;52.126;5.572;2023-04-04T05:52:37;4.70;;;3.15;;
18249;SDS011;27980;52.126;5.572;2023-04-04T05:55:04;6.82;;;3.72;;
18249;SDS011;27980;52.126;5.572;2023-04-04T05:57:31;4.13;;;3.38;;
18249;SDS011;27980;52.126;5.572;2023-04-04T05:59:58;4.68;;;3.55;;
18249;SDS011;27980;52.126;5.572;2023-04-04T06:02:25;4.38;;;3.42;;
18249;SDS011;27980;52.126;5.572;2023-04-04T06:04:51;4.90;;;3.42;;
18249;SDS011;27980;52.126;5.572;2023-04-04T06:07:18;5.82;;;4.05;;
18249;SDS011;27980;52.126;5.572;2023-04-04T06:09:45;6.20;;;2.90;;
18249;SDS011;27980;52.126;5.572;2023-04-04T06:12:11;5.00;;;2.85;;
18249;SDS011;27980;52.126;5.572;2023-04-04T06:14:38;5.40;;;3.67;;
18249;SDS011;27980;52.126;5.572;2023-04-04T06:17:05;6.88;;;3.42;;
18249;SDS011;27980;52.126;5.572;2023-04-04T06:19:33;4.88;;;3.15;;
18249;SDS011;27980;52.126;5.572;2023-04-04T06:21:59;4.38;;;2.85;;
18249;SDS011;27980;52.126;5.572;2023-04-04T06:24:26;2.97;;;2.75;;
18249;SDS011;27980;52.126;5.572;2023-04-04T06:26:52;11.40;;;3.70;;
18249;SDS011;27980;52.126;5.572;2023-04-04T06:29:18;5.82;;;3.63;;
18249;SDS011;27980;52.126;5.572;2023-04-04T06:31:45;6.10;;;3.55;;
18249;SDS011;27980;52.126;5.572;2023-04-04T06:34:13;4.32;;;3.45;;
18249;SDS011;27980;52.126;5.572;2023-04-04T06:36:39;5.25;;;3.00;;
18249;SDS011;27980;52.126;5.572;2023-04-04T06:39:05;4.10;;;2.80;;
18249;SDS011;27980;52.126;5.572;2023-04-04T06:41:32;5.35;;;3.03;;
18249;SDS011;27980;52.126;5.572;2023-04-04T06:43:58;4.88;;;3.05;;
18249;SDS011;27980;52.126;5.572;2023-04-04T06:46:24;5.35;;;3.28;;
18249;SDS011;27980;52.126;5.572;2023-04-04T06:48:51;6.57;;;3.42;;
18249;SDS011;27980;52.126;5.572;2023-04-04T06:51:20;4.28;;;3.20;;
18249;SDS011;27980;52.126;5.572;2023-04-04T06:53:47;5.13;;;3.55;;
18249;SDS011;27980;52.126;5.572;2023-04-04T06:56:13;7.90;;;3.47;;
18249;SDS011;27980;52.126;5.572;2023-04-04T06:58:41;5.18;;;2.95;;
18249;SDS011;27980;52.126;5.572;2023-04-04T07:01:07;5.07;;;3.35;;
18249;SDS011;27980;52.126;5.572;2023-04-04T07:03:36;4.78;;;3.15;;
18249;SDS011;27980;52.126;5.572;2023-04-04T07:06:03;4.38;;;3.47;;
18249;SDS011;27980;52.126;5.572;2023-04-04T07:08:30;9.07;;;3.60;;
18249;SDS011;27980;52.126;5.572;2023-04-04T07:10:57;8.35;;;3.53;;
18249;SDS011;27980;52.126;5.572;2023-04-04T07:13:24;7.07;;;3.42;;
18249;SDS011;27980;52.126;5.572;2023-04-04T07:15:51;6.07;;;3.42;;
18249;SDS011;27980;52.126;5.572;2023-04-04T07:18:17;8.02;;;3.03;;
18249;SDS011;27980;52.126;5.572;2023-04-04T07:20:44;4.45;;;3.33;;
18249;SDS011;27980;52.126;5.572;2023-04-04T07:23:11;4.50;;;3.58;;
18249;SDS011;27980;52.126;5.572;2023-04-04T07:25:39;8.60;;;4.53;;
18249;SDS011;27980;52.126;5.572;2023-04-04T07:28:06;6.10;;;3.78;;
18249;SDS011;27980;52.126;5.572;2023-04-04T07:30:32;8.95;;;4.00;;
18249;SDS011;27980;52.126;5.572;2023-04-04T07:32:59;7.68;;;3.72;;
18249;SDS011;27980;52.126;5.572;2023-04-04T07:35:25;9.82;;;4.10;;
18249;SDS011;27980;52.126;5.572;2023-04-04T07:37:53;9.48;;;4.70;;
18249;SDS011;27980;52.126;5.572;2023-04-04T07:40:20;6.68;;;3.70;;
18249;SDS011;27980;52.126;5.572;2023-04-04T07:42:48;8.40;;;3.85;;
18249;SDS011;27980;52.126;5.572;2023-04-04T07:45:16;8.18;;;3.30;;
18249;SDS011;27980;52.126;5.572;2023-04-04T07:47:43;6.05;;;3.55;;
18249;SDS011;27980;52.126;5.572;2023-04-04T07:50:10;4.78;;;3.53;;
18249;SDS011;27980;52.126;5.572;2023-04-04T07:52:36;6.18;;;3.78;;
18249;SDS011;27980;52.126;5.572;2023-04-04T07:55:03;4.63;;;2.97;;
18249;SDS011;27980;52.126;5.572;2023-04-04T07:57:31;4.78;;;2.53;;
18249;SDS011;27980;52.126;5.572;2023-04-04T07:59:59;5.88;;;2.50;;
18249;SDS011;27980;52.126;5.572;2023-04-04T08:02:25;4.20;;;2.47;;
18249;SDS011;27980;52.126;5.572;2023-04-04T08:04:51;4.07;;;2.10;;
18249;SDS011;27980;52.126;5.572;2023-04-04T08:07:21;3.80;;;2.00;;
18249;SDS011;27980;52.126;5.572;2023-04-04T08:09:48;4.18;;;1.90;;
18249;SDS011;27980;52.126;5.572;2023-04-04T08:12:14;2.58;;;1.70;;
18249;SDS011;27980;52.126;5.572;2023-04-04T08:14:41;2.88;;;1.67;;
18249;SDS011;27980;52.126;5.572;2023-04-04T08:17:09;2.38;;;1.77;;
18249;SDS011;27980;52.126;5.572;2023-04-04T08:19:36;4.03;;;1.40;;
18249;SDS011;27980;52.126;5.572;2023-04-04T08:22:02;2.35;;;1.58;;
18249;SDS011;27980;52.126;5.572;2023-04-04T08:24:30;2.25;;;1.75;;
18249;SDS011;27980;52.126;5.572;2023-04-04T08:26:57;6.05;;;1.88;;
18249;SDS011;27980;52.126;5.572;2023-04-04T08:29:23;3.17;;;1.52;;
18249;SDS011;27980;52.126;5.572;2023-04-04T08:31:50;2.75;;;1.38;;
18249;SDS011;27980;52.126;5.572;2023-04-04T08:34:19;3.28;;;1.77;;
18249;SDS011;27980;52.126;5.572;2023-04-04T08:36:47;3.85;;;1.70;;
18249;SDS011;27980;52.126;5.572;2023-04-04T08:39:14;5.60;;;1.50;;
18249;SDS011;27980;52.126;5.572;2023-04-04T08:41:41;3.92;;;1.20;;
18249;SDS011;27980;52.126;5.572;2023-04-04T08:44:08;1.58;;;1.05;;
18249;SDS011;27980;52.126;5.572;2023-04-04T08:46:37;4.47;;;1.40;;
18249;SDS011;27980;52.126;5.572;2023-04-04T08:49:04;1.73;;;1.15;;
18249;SDS011;27980;52.126;5.572;2023-04-04T08:51:32;1.20;;;0.88;;
18249;SDS011;27980;52.126;5.572;2023-04-04T08:53:59;2.28;;;0.98;;
18249;SDS011;27980;52.126;5.572;2023-04-04T08:56:26;1.35;;;0.95;;
18249;SDS011;27980;52.126;5.572;2023-04-04T08:58:53;1.52;;;1.00;;
18249;SDS011;27980;52.126;5.572;2023-04-04T09:01:20;1.52;;;0.90;;
18249;SDS011;27980;52.126;5.572;2023-04-04T09:03:47;1.35;;;0.70;;
18249;SDS011;27980;52.126;5.572;2023-04-04T09:06:14;4.50;;;1.30;;
18249;SDS011;27980;52.126;5.572;2023-04-04T09:08:44;2.13;;;0.93;;
18249;SDS011;27980;52.126;5.572;2023-04-04T09:11:12;0.98;;;0.85;;
18249;SDS011;27980;52.126;5.572;2023-04-04T09:13:38;2.20;;;0.98;;
18249;SDS011;27980;52.126;5.572;2023-04-04T09:16:06;1.85;;;1.00;;
18249;SDS011;27980;52.126;5.572;2023-04-04T09:18:32;1.98;;;1.10;;
18249;SDS011;27980;52.126;5.572;2023-04-04T09:20:59;3.03;;;1.42;;
18249;SDS011;27980;52.126;5.572;2023-04-04T09:23:33;4.07;;;1.27;;
18249;SDS011;27980;52.126;5.572;2023-04-04T09:26:01;2.13;;;1.30;;
18249;SDS011;27980;52.126;5.572;2023-04-04T09:28:27;1.52;;;1.08;;
18249;SDS011;27980;52.126;5.572;2023-04-04T09:30:54;2.42;;;1.30;;
18249;SDS011;27980;52.126;5.572;2023-04-04T09:33:21;1.48;;;1.00;;
18249;SDS011;27980;52.126;5.572;2023-04-04T09:35:50;2.15;;;0.95;;
18249;SDS011;27980;52.126;5.572;2023-04-04T09:38:17;1.40;;;1.15;;
18249;SDS011;27980;52.126;5.572;2023-04-04T09:40:46;1.48;;;1.10;;
18249;SDS011;27980;52.126;5.572;2023-04-04T09:43:13;2.95;;;1.58;;
18249;SDS011;27980;52.126;5.572;2023-04-04T09:45:41;1.70;;;1.00;;
18249;SDS011;27980;52.126;5.572;2023-04-04T09:48:09;3.90;;;1.08;;
18249;SDS011;27980;52.126;5.572;2023-04-04T09:50:36;6.28;;;1.42;;
18249;SDS011;27980;52.126;5.572;2023-04-04T09:53:03;1.10;;;0.85;;
18249;SDS011;27980;52.126;5.572;2023-04-04T09:55:30;1.40;;;1.15;;
18249;SDS011;27980;52.126;5.572;2023-04-04T09:57:57;1.80;;;1.30;;
18249;SDS011;27980;52.126;5.572;2023-04-04T10:00:27;1.92;;;1.20;;
18249;SDS011;27980;52.126;5.572;2023-04-04T10:02:53;1.58;;;0.90;;
18249;SDS011;27980;52.126;5.572;2023-04-04T10:05:22;4.05;;;1.13;;
18249;SDS011;27980;52.126;5.572;2023-04-04T10:07:49;1.25;;;1.13;;
18249;SDS011;27980;52.126;5.572;2023-04-04T10:10:16;1.40;;;1.20;;
18249;SDS011;27980;52.126;5.572;2023-04-04T10:12:44;2.58;;;1.05;;
18249;SDS011;27980;52.126;5.572;2023-04-04T10:15:11;1.50;;;1.13;;
18249;SDS011;27980;52.126;5.572;2023-04-04T10:17:39;2.10;;;1.10;;
18249;SDS011;27980;52.126;5.572;2023-04-04T10:20:07;3.70;;;1.30;;
18249;SDS011;27980;52.126;5.572;2023-04-04T10:22:34;1.70;;;0.90;;
18249;SDS011;27980;52.126;5.572;2023-04-04T10:25:00;2.53;;;1.50;;
18249;SDS011;27980;52.126;5.572;2023-04-04T10:27:27;2.22;;;1.23;;
18249;SDS011;27980;52.126;5.572;2023-04-04T10:29:54;2.30;;;1.40;;
18249;SDS011;27980;52.126;5.572;2023-04-04T10:32:21;2.38;;;1.30;;
18249;SDS011;27980;52.126;5.572;2023-04-04T10:34:52;2.70;;;2.00;;
18249;SDS011;27980;52.126;5.572;2023-04-04T10:37:22;3.03;;;1.40;;
18249;SDS011;27980;52.126;5.572;2023-04-04T10:39:51;2.80;;;1.23;;
18249;SDS011;27980;52.126;5.572;2023-04-04T10:42:18;1.70;;;1.13;;
18249;SDS011;27980;52.126;5.572;2023-04-04T10:44:45;1.88;;;1.30;;
18249;SDS011;27980;52.126;5.572;2023-04-04T10:47:13;3.53;;;1.50;;
18249;SDS011;27980;52.126;5.572;2023-04-04T10:49:40;2.42;;;1.30;;
18249;SDS011;27980;52.126;5.572;2023-04-04T10:52:08;1.60;;;1.25;;
18249;SDS011;27980;52.126;5.572;2023-04-04T10:54:36;2.58;;;1.35;;
18249;SDS011;27980;52.126;5.572;2023-04-04T10:57:03;2.88;;;1.40;;
18249;SDS011;27980;52.126;5.572;2023-04-04T10:59:29;2.03;;;1.23;;
18249;SDS011;27980;52.126;5.572;2023-04-04T11:01:56;2.67;;;1.58;;
18249;SDS011;27980;52.126;5.572;2023-04-04T11:04:32;2.35;;;1.65;;
18249;SDS011;27980;52.126;5.572;2023-04-04T11:07:14;3.28;;;1.40;;
18249;SDS011;27980;52.126;5.572;2023-04-04T11:09:47;2.80;;;1.10;;
18249;SDS011;27980;52.126;5.572;2023-04-04T11:12:14;2.40;;;1.40;;
18249;SDS011;27980;52.126;5.572;2023-04-04T11:14:53;3.40;;;1.27;;
18249;SDS011;27980;52.126;5.572;2023-04-04T11:17:23;1.50;;;1.05;;
18249;SDS011;27980;52.126;5.572;2023-04-04T11:19:57;3.28;;;1.40;;
18249;SDS011;27980;52.126;5.572;2023-04-04T11:22:25;1.60;;;1.20;;
18249;SDS011;27980;52.126;5.572;2023-04-04T11:24:57;2.35;;;1.30;;
18249;SDS011;27980;52.126;5.572;2023-04-04T11:27:25;3.25;;;1.33;;
18249;SDS011;27980;52.126;5.572;2023-04-04T11:29:52;2.45;;;1.30;;
18249;SDS011;27980;52.126;5.572;2023-04-04T11:35:03;3.60;;;1.30;;
18249;SDS011;27980;52.126;5.572;2023-04-04T11:37:31;3.28;;;1.40;;
18249;SDS011;27980;52.126;5.572;2023-04-04T11:40:08;1.83;;;1.40;;
18249;SDS011;27980;52.126;5.572;2023-04-04T11:42:37;2.08;;;1.35;;
18249;SDS011;27980;52.126;5.572;2023-04-04T11:45:05;1.83;;;1.30;;
18249;SDS011;27980;52.126;5.572;2023-04-04T11:47:33;2.22;;;1.45;;
18249;SDS011;27980;52.126;5.572;2023-04-04T11:50:06;3.58;;;1.60;;
18249;SDS011;27980;52.126;5.572;2023-04-04T11:52:35;2.65;;;1.30;;
18249;SDS011;27980;52.126;5.572;2023-04-04T11:55:12;2.92;;;1.50;;
18249;SDS011;27980;52.126;5.572;2023-04-04T11:57:40;2.88;;;1.50;;
18249;SDS011;27980;52.126;5.572;2023-04-04T12:00:07;1.30;;;1.20;;
18249;SDS011;27980;52.126;5.572;2023-04-04T12:02:33;2.05;;;1.40;;
18249;SDS011;27980;52.126;5.572;2023-04-04T12:05:02;2.67;;;1.45;;
18249;SDS011;27980;52.126;5.572;2023-04-04T12:07:29;3.17;;;1.30;;
18249;SDS011;27980;52.126;5.572;2023-04-04T12:09:56;1.85;;;1.30;;
18249;SDS011;27980;52.126;5.572;2023-04-04T12:12:23;2.40;;;1.25;;
18249;SDS011;27980;52.126;5.572;2023-04-04T12:14:52;2.50;;;1.67;;
18249;SDS011;27980;52.126;5.572;2023-04-04T12:17:18;3.15;;;1.38;;
18249;SDS011;27980;52.126;5.572;2023-04-04T12:19:45;2.53;;;1.30;;
18249;SDS011;27980;52.126;5.572;2023-04-04T12:22:12;1.67;;;1.23;;
18249;SDS011;27980;52.126;5.572;2023-04-04T12:24:39;4.35;;;1.63;;
18249;SDS011;27980;52.126;5.572;2023-04-04T12:27:07;2.70;;;1.33;;
18249;SDS011;27980;52.126;5.572;2023-04-04T12:29:35;2.50;;;1.50;;
18249;SDS011;27980;52.126;5.572;2023-04-04T12:32:02;2.88;;;1.33;;
18249;SDS011;27980;52.126;5.572;2023-04-04T12:34:30;1.60;;;1.50;;
18249;SDS011;27980;52.126;5.572;2023-04-04T12:36:57;2.33;;;1.20;;
18249;SDS011;27980;52.126;5.572;2023-04-04T12:39:24;3.30;;;2.00;;
18249;SDS011;27980;52.126;5.572;2023-04-04T12:41:51;3.30;;;1.60;;
18249;SDS011;27980;52.126;5.572;2023-04-04T12:44:26;2.63;;;1.67;;
18249;SDS011;27980;52.126;5.572;2023-04-04T12:46:55;2.00;;;1.30;;
18249;SDS011;27980;52.126;5.572;2023-04-04T12:49:22;2.22;;;1.48;;
18249;SDS011;27980;52.126;5.572;2023-04-04T12:51:51;3.15;;;1.40;;
18249;SDS011;27980;52.126;5.572;2023-04-04T12:54:25;1.63;;;1.30;;
18249;SDS011;27980;52.126;5.572;2023-04-04T12:56:53;2.95;;;1.80;;
18249;SDS011;27980;52.126;5.572;2023-04-04T12:59:21;4.50;;;1.65;;
18249;SDS011;27980;52.126;5.572;2023-04-04T13:01:49;2.83;;;1.55;;
18249;SDS011;27980;52.126;5.572;2023-04-04T13:04:16;2.17;;;1.35;;
18249;SDS011;27980;52.126;5.572;2023-04-04T13:06:43;3.67;;;1.48;;
18249;SDS011;27980;52.126;5.572;2023-04-04T13:09:15;1.80;;;1.40;;
18249;SDS011;27980;52.126;5.572;2023-04-04T13:11:57;3.10;;;1.67;;
18249;SDS011;27980;52.126;5.572;2023-04-04T13:14:26;2.55;;;1.80;;
18249;SDS011;27980;52.126;5.572;2023-04-04T13:17:03;4.93;;;1.40;;
18249;SDS011;27980;52.126;5.572;2023-04-04T13:19:32;4.25;;;1.85;;
18249;SDS011;27980;52.126;5.572;2023-04-04T13:21:59;4.28;;;1.23;;
18249;SDS011;27980;52.126;5.572;2023-04-04T13:24:26;3.53;;;1.80;;
18249;SDS011;27980;52.126;5.572;2023-04-04T13:26:52;4.57;;;2.10;;
18249;SDS011;27980;52.126;5.572;2023-04-04T13:29:19;8.60;;;2.30;;
18249;SDS011;27980;52.126;5.572;2023-04-04T13:31:45;5.20;;;1.70;;
18249;SDS011;27980;52.126;5.572;2023-04-04T13:34:13;3.92;;;1.73;;
18249;SDS011;27980;52.126;5.572;2023-04-04T13:36:40;5.03;;;2.00;;
18249;SDS011;27980;52.126;5.572;2023-04-04T13:39:08;5.53;;;1.85;;
18249;SDS011;27980;52.126;5.572;2023-04-04T13:41:36;3.08;;;1.85;;
18249;SDS011;27980;52.126;5.572;2023-04-04T13:44:04;2.63;;;1.30;;
18249;SDS011;27980;52.126;5.572;2023-04-04T13:46:30;3.13;;;1.60;;
18249;SDS011;27980;52.126;5.572;2023-04-04T13:48:58;3.28;;;1.52;;
18249;SDS011;27980;52.126;5.572;2023-04-04T13:51:27;4.93;;;2.20;;
18249;SDS011;27980;52.126;5.572;2023-04-04T13:53:53;1.67;;;1.35;;
18249;SDS011;27980;52.126;5.572;2023-04-04T13:56:20;3.80;;;1.42;;
18249;SDS011;27980;52.126;5.572;2023-04-04T13:58:46;2.28;;;1.88;;
18249;SDS011;27980;52.126;5.572;2023-04-04T14:01:14;5.15;;;1.45;;
18249;SDS011;27980;52.126;5.572;2023-04-04T14:03:41;3.63;;;1.50;;
18249;SDS011;27980;52.126;5.572;2023-04-04T14:06:09;6.40;;;1.98;;
18249;SDS011;27980;52.126;5.572;2023-04-04T14:08:37;4.20;;;2.00;;
18249;SDS011;27980;52.126;5.572;2023-04-04T14:11:04;1.88;;;1.70;;
18249;SDS011;27980;52.126;5.572;2023-04-04T14:13:30;3.05;;;1.45;;
18249;SDS011;27980;52.126;5.572;2023-04-04T14:15:57;2.20;;;1.55;;
18249;SDS011;27980;52.126;5.572;2023-04-04T14:18:24;3.53;;;2.03;;
18249;SDS011;27980;52.126;5.572;2023-04-04T14:20:51;2.67;;;1.90;;
18249;SDS011;27980;52.126;5.572;2023-04-04T14:23:17;3.33;;;1.70;;
18249;SDS011;27980;52.126;5.572;2023-04-04T14:25:46;4.15;;;2.17;;
18249;SDS011;27980;52.126;5.572;2023-04-04T14:28:13;1.92;;;1.45;;
18249;SDS011;27980;52.126;5.572;2023-04-04T14:30:40;5.95;;;2.10;;
18249;SDS011;27980;52.126;5.572;2023-04-04T14:33:06;3.60;;;1.38;;
18249;SDS011;27980;52.126;5.572;2023-04-04T14:35:33;5.03;;;1.73;;
18249;SDS011;27980;52.126;5.572;2023-04-04T14:38:00;4.53;;;1.70;;
18249;SDS011;27980;52.126;5.572;2023-04-04T14:40:27;3.13;;;1.45;;
18249;SDS011;27980;52.126;5.572;2023-04-04T14:42:57;2.47;;;1.60;;
18249;SDS011;27980;52.126;5.572;2023-04-04T14:45:25;2.13;;;1.70;;
18249;SDS011;27980;52.126;5.572;2023-04-04T14:47:52;3.50;;;1.77;;
18249;SDS011;27980;52.126;5.572;2023-04-04T14:50:19;2.50;;;1.70;;
18249;SDS011;27980;52.126;5.572;2023-04-04T14:52:45;3.10;;;1.70;;